BDU weather

Bardufoss Airport
MÃ¥lselv, Troms, Norway

Public forecast

Using degrees Celsius for public forecast. Weather courtesy of forecast.io.

Current aviation weather report (METAR) for Bardufoss Airport

Retrieved 2020/02/20 10:20 UTC (15 minutes ago):

ENDU 201020Z 29004KT 240V330 CAVOK M15/M17 Q0994 NOSIG RMK WIND 1100FT 14009KT WIND 2200FT 15024KT

Aviation forecast (TAF) for Bardufoss Airport

Retrieved 2020/02/20 06:57 UTC (4 hours ago):

TAF ENDU 200500Z 2006/2106 10005KT 9999 FEW040 TEMPO 2012/2018 10015KT PROB30 TEMPO 2102/2106 4000 -SN VV014